Time;durP1;ratioP1;P1;durP2;ratioP2;P2;SDS_P1;SDS_P2;PMS_P1;PMS_P2;Temp;Humidity;BMP_temperature;BMP_pressure;BME280_temperature;BME280_humidity;BME280_pressure;Samples;Min_cycle;Max_cycle;Signal;HPM_P1;HPM_P2
2022/03/28 00:00:49;;;;;;;;;;;;;;;8.61;48.65;100738.53;5234273;27;33310;-88
2022/03/28 00:03:19;;;;;;;;;;;;;;;8.47;49.24;100734.06;5227374;27;34273;-88
2022/03/28 00:05:48;;;;;;;;;;;;;;;8.76;47.80;100730.94;5228002;27;34070;-88
2022/03/28 00:08:16;;;;;;;;;;;;;;;8.74;47.94;100728.34;5227640;27;33771;-88
2022/03/28 00:10:45;;;;;;;;;;;;;;;8.49;48.65;100734.09;5227334;27;33184;-89
2022/03/28 00:13:13;;;;;;;;;;;;;;;8.57;48.43;100726.41;5233918;27;34329;-88
2022/03/28 00:15:42;;;;;;;;;;;;;;;8.31;49.20;100727.81;5226861;27;33862;-88
2022/03/28 00:18:13;;;;;;;;;;;;;;;8.03;49.79;100729.16;5227282;27;34825;-88
2022/03/28 00:20:42;;;;;;;;;;;;;;;7.99;49.76;100729.94;5228490;27;33358;-88
2022/03/28 00:23:11;;;;;;;;;;;;;;;8.13;49.31;100732.72;5227274;27;34977;-87
2022/03/28 00:25:40;;;;;;;;;;;;;;;7.94;49.76;100729.03;5234188;27;33702;-89
2022/03/28 00:28:08;;;;;;;;;;;;;;;8.05;49.42;100724.87;5227225;27;34165;-88
2022/03/28 00:30:37;;;;;;;;;;;;;;;7.99;49.45;100722.19;5229272;27;33411;-88
2022/03/28 00:33:06;;;;;;;;;;;;;;;7.88;49.69;100716.91;5227367;27;33982;-88
2022/03/28 00:35:35;;;;;;;;;;;;;;;7.83;49.81;100710.81;5227429;27;33494;-88
2022/03/28 00:38:05;;;;;;;;;;;;;;;7.70;50.05;100699.41;5234270;27;33905;-88
2022/03/28 00:40:34;;;;;;;;;;;;;;;7.73;49.93;100698.56;5229014;27;32698;-88
2022/03/28 00:43:03;;;;;;;;;;;;;;;7.60;50.26;100701.84;5227379;27;33778;-87
2022/03/28 00:45:32;;;;;;;;;;;;;;;7.72;49.57;100696.84;5227302;27;34973;-88
2022/03/28 00:48:01;;;;;;;;;;;;;;;7.76;49.86;100695.19;5228905;27;34829;-88
2022/03/28 00:50:29;;;;;;;;;;;;;;;7.77;49.72;100691.75;5228053;27;32950;-88
2022/03/28 00:52:58;;;;;;;;;;;;;;;7.77;49.47;100682.28;5233941;27;34194;-88
2022/03/28 00:55:28;;;;;;;;;;;;;;;7.85;49.41;100684.97;5226880;27;34015;-88
2022/03/28 00:57:58;;;;;;;;;;;;;;;7.95;48.91;100686.84;5226786;27;34212;-88
2022/03/28 01:00:27;;;;;;;;;;;;;;;7.84;49.17;100685.81;5226966;27;33078;-88
2022/03/28 01:02:57;;;;;;;;;;;;;;;7.85;49.02;100682.38;5226964;27;34231;-88
2022/03/28 01:05:27;;;;;;;;;;;;;;;8.11;48.06;100681.00;5233942;27;34130;-88
2022/03/28 01:07:56;;;;;;;;;;;;;;;7.96;48.37;100686.00;5227229;27;34027;-87
2022/03/28 01:10:24;;;;;;;;;;;;;;;7.94;48.49;100674.75;5227212;27;33215;-88
2022/03/28 01:12:54;;;;;;;;;;;;;;;7.84;48.95;100675.50;5228483;27;33904;-88
2022/03/28 01:15:22;;;;;;;;;;;;;;;7.90;48.24;100672.97;5226984;27;33981;-88
2022/03/28 01:18:11;;;;;;;;;;;;;;;8.01;47.67;100670.56;5233260;27;34261;-89
2022/03/28 01:20:40;;;;;;;;;;;;;;;7.94;48.05;100673.91;5233478;27;33552;-89
2022/03/28 01:23:10;;;;;;;;;;;;;;;7.76;48.74;100671.94;5226112;27;34623;-89
2022/03/28 01:25:38;;;;;;;;;;;;;;;8.06;47.07;100663.72;5226848;27;34881;-89
2022/03/28 01:28:07;;;;;;;;;;;;;;;7.94;47.88;100664.44;5227781;27;34514;-89
2022/03/28 01:30:38;;;;;;;;;;;;;;;8.04;47.87;100663.69;5227071;27;33974;-88
2022/03/28 01:33:07;;;;;;;;;;;;;;;7.94;48.24;100664.44;5233918;27;34839;-89
2022/03/28 01:35:36;;;;;;;;;;;;;;;7.98;48.10;100658.47;5227013;27;34601;-89
2022/03/28 01:38:06;;;;;;;;;;;;;;;7.77;48.52;100653.87;5227069;27;34651;-89
2022/03/28 01:40:37;;;;;;;;;;;;;;;7.95;47.83;100650.69;5207928;27;31921;-89
2022/03/28 01:43:05;;;;;;;;;;;;;;;7.98;47.38;100653.28;5227516;27;32636;-89
2022/03/28 01:45:34;;;;;;;;;;;;;;;7.77;47.53;100645.25;5233784;27;34744;-89
2022/03/28 01:48:03;;;;;;;;;;;;;;;7.82;47.42;100648.78;5230355;27;34995;-90
2022/03/28 01:50:31;;;;;;;;;;;;;;;7.69;47.33;100646.03;5226679;27;33115;-89
2022/03/28 01:53:00;;;;;;;;;;;;;;;7.36;47.49;100640.37;5227386;27;34268;-90
2022/03/28 01:55:28;;;;;;;;;;;;;;;7.23;47.80;100641.91;5226654;27;33789;-89
2022/03/28 01:57:58;;;;;;;;;;;;;;;7.49;47.44;100637.13;5227599;27;33708;-89
2022/03/28 02:00:32;;;;;;;;;;;;;;;7.54;47.37;100638.06;5234137;27;33678;-89
2022/03/28 02:03:01;;;;;;;;;;;;;;;7.69;47.00;100638.28;5227236;27;34160;-89
2022/03/28 02:05:29;;;;;;;;;;;;;;;7.50;47.30;100632.84;5227128;27;34915;-89
2022/03/28 02:07:59;;;;;;;;;;;;;;;7.35;47.60;100633.47;5227466;27;33885;-89
2022/03/28 02:10:27;;;;;;;;;;;;;;;7.14;47.65;100639.16;5226912;27;33434;-89
2022/03/28 02:12:58;;;;;;;;;;;;;;;7.39;47.19;100643.87;5234019;27;33797;-89
2022/03/28 02:15:26;;;;;;;;;;;;;;;7.48;46.84;100632.81;5226928;27;34658;-89
2022/03/28 02:17:54;;;;;;;;;;;;;;;7.40;47.32;100630.13;5227257;27;33901;-89
2022/03/28 02:20:23;;;;;;;;;;;;;;;7.36;47.59;100627.47;5226781;27;33266;-89
2022/03/28 02:22:51;;;;;;;;;;;;;;;7.37;47.54;100629.19;5226988;27;33872;-89
2022/03/28 02:25:20;;;;;;;;;;;;;;;7.44;47.26;100626.75;5233609;27;35157;-89
2022/03/28 02:27:48;;;;;;;;;;;;;;;7.48;47.25;100623.34;5227569;27;34619;-89
2022/03/28 02:30:18;;;;;;;;;;;;;;;7.43;47.25;100626.72;5226775;27;33302;-89
2022/03/28 02:32:46;;;;;;;;;;;;;;;7.49;46.87;100624.22;5226939;27;34098;-89
2022/03/28 02:35:17;;;;;;;;;;;;;;;7.46;47.29;100624.16;5226495;27;33975;-89
2022/03/28 02:37:47;;;;;;;;;;;;;;;7.29;47.75;100629.06;5233843;27;33799;-89
2022/03/28 02:40:15;;;;;;;;;;;;;;;7.28;47.68;100626.50;5233022;27;33280;-89
2022/03/28 02:42:44;;;;;;;;;;;;;;;7.36;47.37;100633.50;5226975;27;34212;-89
2022/03/28 02:45:12;;;;;;;;;;;;;;;7.32;47.42;100626.56;5226480;27;33910;-89
2022/03/28 02:47:42;;;;;;;;;;;;;;;7.32;47.55;100620.50;5207911;27;33034;-89
2022/03/28 02:50:11;;;;;;;;;;;;;;;7.33;47.25;100622.25;5226852;27;34046;-89
2022/03/28 02:52:39;;;;;;;;;;;;;;;7.29;47.44;100623.06;5233701;27;33708;-89
2022/03/28 02:55:08;;;;;;;;;;;;;;;7.42;46.92;100623.25;5226673;27;33860;-89
2022/03/28 02:57:37;;;;;;;;;;;;;;;7.00;47.73;100616.56;5227192;27;34906;-89
2022/03/28 03:00:07;;;;;;;;;;;;;;;7.13;47.32;100616.78;5207630;27;32812;-88
2022/03/28 03:02:36;;;;;;;;;;;;;;;7.26;47.17;100618.72;5227780;27;33102;-89
2022/03/28 03:05:08;;;;;;;;;;;;;;;7.20;47.13;100627.25;5233138;27;33671;-88
2022/03/28 03:07:36;;;;;;;;;;;;;;;7.34;46.90;100617.09;5227033;27;34253;-89
2022/03/28 03:10:05;;;;;;;;;;;;;;;7.44;45.91;100619.00;5227551;27;33005;-89
2022/03/28 03:12:33;;;;;;;;;;;;;;;7.42;46.85;100617.25;5227824;27;35205;-89
2022/03/28 03:15:02;;;;;;;;;;;;;;;7.41;47.12;100618.94;5227226;27;33978;-89
2022/03/28 03:17:30;;;;;;;;;;;;;;;7.51;46.95;100619.94;5234162;27;34888;-88
2022/03/28 03:19:59;;;;;;;;;;;;;;;7.21;47.20;100621.22;5231092;27;33634;-89
2022/03/28 03:22:29;;;;;;;;;;;;;;;7.24;47.11;100617.81;5227784;27;34210;-89
2022/03/28 03:24:57;;;;;;;;;;;;;;;7.41;46.12;100612.91;5227477;27;34964;-89
2022/03/28 03:27:26;;;;;;;;;;;;;;;7.22;46.67;100614.34;5227351;27;34452;-88
2022/03/28 03:29:55;;;;;;;;;;;;;;;7.14;46.84;100614.22;5231424;27;33403;-89
2022/03/28 03:32:23;;;;;;;;;;;;;;;7.19;46.88;100611.72;5233445;27;33189;-89
2022/03/28 03:34:52;;;;;;;;;;;;;;;7.10;47.31;100614.16;5208318;27;33228;-89
2022/03/28 03:37:21;;;;;;;;;;;;;;;7.11;47.38;100615.91;5229082;27;34968;-89
2022/03/28 03:39:50;;;;;;;;;;;;;;;6.81;48.04;100609.38;5227174;27;32942;-89
2022/03/28 03:42:19;;;;;;;;;;;;;;;6.93;47.70;100611.31;5227414;27;33911;-89
2022/03/28 03:44:47;;;;;;;;;;;;;;;6.89;47.47;100604.38;5234351;27;33446;-89
2022/03/28 03:47:16;;;;;;;;;;;;;;;6.90;46.91;100600.94;5227474;27;34778;-89
2022/03/28 03:49:44;;;;;;;;;;;;;;;6.77;46.72;100605.03;5227884;27;32909;-89
2022/03/28 03:52:13;;;;;;;;;;;;;;;6.70;46.66;100609.22;5227684;27;34244;-89
2022/03/28 03:54:41;;;;;;;;;;;;;;;6.46;47.15;100606.22;5227301;27;34388;-89
2022/03/28 03:57:12;;;;;;;;;;;;;;;6.36;47.15;100608.59;5233874;27;33701;-89
2022/03/28 03:59:41;;;;;;;;;;;;;;;6.71;46.67;100599.75;5227322;27;32956;-89
2022/03/28 04:02:09;;;;;;;;;;;;;;;6.59;47.08;100598.69;5226932;27;33486;-89
2022/03/28 04:04:40;;;;;;;;;;;;;;;6.76;46.92;100604.16;5227301;27;34176;-89
2022/03/28 04:07:09;;;;;;;;;;;;;;;6.62;47.20;100603.06;5227180;27;34617;-89
2022/03/28 04:09:38;;;;;;;;;;;;;;;6.69;47.10;100606.59;5233549;27;33411;-89
2022/03/28 04:12:07;;;;;;;;;;;;;;;6.73;47.11;100603.25;5227208;27;34739;-89
2022/03/28 04:14:37;;;;;;;;;;;;;;;6.63;47.15;100597.06;5227605;27;34576;-89
2022/03/28 04:17:05;;;;;;;;;;;;;;;6.79;47.01;100603.31;5227184;27;33382;-89
2022/03/28 04:19:34;;;;;;;;;;;;;;;6.59;47.42;100601.28;5227753;27;33111;-89
2022/03/28 04:22:03;;;;;;;;;;;;;;;6.75;47.48;100598.97;5232585;27;33605;-89
2022/03/28 04:24:32;;;;;;;;;;;;;;;6.55;48.36;100598.66;5234014;27;35740;-89
2022/03/28 04:27:00;;;;;;;;;;;;;;;6.44;48.89;100595.00;5227272;27;34224;-89
2022/03/28 04:29:28;;;;;;;;;;;;;;;6.28;49.37;100591.25;5227128;27;33150;-90
2022/03/28 04:31:58;;;;;;;;;;;;;;;6.34;49.26;100601.69;5226537;27;34239;-89
2022/03/28 04:34:27;;;;;;;;;;;;;;;6.54;49.27;100596.87;5227261;27;34494;-89
2022/03/28 04:36:55;;;;;;;;;;;;;;;6.62;48.88;100590.19;5233693;27;34344;-89
2022/03/28 04:39:24;;;;;;;;;;;;;;;6.18;49.75;100592.78;5227750;27;33440;-89
2022/03/28 04:41:52;;;;;;;;;;;;;;;6.39;49.16;100590.63;5226272;27;34607;-89
2022/03/28 04:44:20;;;;;;;;;;;;;;;6.49;49.23;100591.66;5227255;27;33789;-89
2022/03/28 04:46:49;;;;;;;;;;;;;;;6.56;49.25;100578.03;5227539;27;34332;-89
2022/03/28 04:49:19;;;;;;;;;;;;;;;6.54;49.42;100584.88;5234742;27;33105;-89
2022/03/28 04:51:47;;;;;;;;;;;;;;;6.24;49.93;100587.75;5226877;27;34231;-89
2022/03/28 04:54:16;;;;;;;;;;;;;;;6.14;49.99;100601.31;5227821;27;33850;-89
2022/03/28 04:56:44;;;;;;;;;;;;;;;6.41;49.47;100590.66;5226796;27;34219;-89
2022/03/28 04:59:13;;;;;;;;;;;;;;;6.55;49.20;100590.91;5227430;27;33487;-89
2022/03/28 05:01:41;;;;;;;;;;;;;;;6.47;49.39;100590.75;5233421;27;34231;-89
2022/03/28 05:04:10;;;;;;;;;;;;;;;6.33;49.69;100590.53;5227172;27;33816;-89
2022/03/28 05:06:40;;;;;;;;;;;;;;;6.69;48.75;100594.56;5227308;27;34119;-89
2022/03/28 05:09:08;;;;;;;;;;;;;;;6.65;48.94;100607.41;5226735;27;33772;-89
2022/03/28 05:11:37;;;;;;;;;;;;;;;6.78;48.38;100604.19;5226947;27;34034;-89
2022/03/28 05:14:05;;;;;;;;;;;;;;;7.03;47.46;100601.19;5233153;27;34689;-90
2022/03/28 05:16:34;;;;;;;;;;;;;;;6.94;47.44;100598.44;5226631;27;34005;-88
2022/03/28 05:19:02;;;;;;;;;;;;;;;7.32;47.20;100598.16;5227019;27;32753;-89
2022/03/28 05:21:31;;;;;;;;;;;;;;;7.48;47.34;100597.53;5226472;27;34245;-89
2022/03/28 05:24:01;;;;;;;;;;;;;;;7.96;45.42;100587.81;5226515;27;33928;-88
2022/03/28 05:26:29;;;;;;;;;;;;;;;8.18;45.25;100590.63;5228013;27;34488;-89
2022/03/28 05:29:01;;;;;;;;;;;;;;;8.17;45.06;100592.38;5234000;27;34034;-88
2022/03/28 05:31:30;;;;;;;;;;;;;;;7.83;45.88;100604.88;5226714;27;34719;-88
2022/03/28 05:33:58;;;;;;;;;;;;;;;8.01;46.37;100598.19;5226750;27;34592;-88
2022/03/28 05:36:27;;;;;;;;;;;;;;;8.10;46.33;100593.16;5227874;27;34228;-88
2022/03/28 05:38:57;;;;;;;;;;;;;;;8.20;45.51;100594.97;5226837;27;33115;-88
2022/03/28 05:41:27;;;;;;;;;;;;;;;7.74;47.09;100593.56;5233225;27;33915;-88
2022/03/28 05:43:55;;;;;;;;;;;;;;;8.02;46.53;100590.47;5226010;27;34434;-88
2022/03/28 05:46:25;;;;;;;;;;;;;;;8.15;46.38;100594.06;5227188;27;34640;-90
2022/03/28 05:48:54;;;;;;;;;;;;;;;8.46;44.54;100584.94;5227414;27;32567;-88
2022/03/28 05:51:22;;;;;;;;;;;;;;;8.69;43.10;100598.06;5226377;27;34781;-88
2022/03/28 05:53:51;;;;;;;;;;;;;;;8.52;44.61;100594.47;5233978;27;33982;-88
2022/03/28 05:56:19;;;;;;;;;;;;;;;8.71;44.37;100590.34;5227630;27;34617;-88
2022/03/28 05:58:49;;;;;;;;;;;;;;;8.28;43.98;100593.31;5227205;27;33090;-88
2022/03/28 06:01:18;;;;;;;;;;;;;;;8.32;44.08;100595.09;5227355;27;34142;-88
2022/03/28 06:03:46;;;;;;;;;;;;;;;8.84;42.12;100584.41;5225936;27;33688;-88
2022/03/28 06:06:18;;;;;;;;;;;;;;;8.58;41.43;100588.47;5232081;27;33563;-88
2022/03/28 06:08:47;;;;;;;;;;;;;;;8.53;41.56;100584.16;5231362;27;32360;-88
2022/03/28 06:11:21;;;;;;;;;;;;;;;8.71;40.94;100591.19;5226159;27;34003;-88
2022/03/28 06:13:51;;;;;;;;;;;;;;;8.24;41.55;100591.59;5227192;27;34293;-88
2022/03/28 06:16:19;;;;;;;;;;;;;;;8.87;40.81;100587.03;5227328;27;33947;-88
2022/03/28 06:18:48;;;;;;;;;;;;;;;8.90;40.77;100584.47;5227215;27;34056;-88
2022/03/28 06:21:16;;;;;;;;;;;;;;;9.37;39.86;100585.63;5233969;27;34123;-88
2022/03/28 06:23:50;;;;;;;;;;;;;;;9.95;37.18;100582.47;5227280;27;33663;-89
2022/03/28 06:26:19;;;;;;;;;;;;;;;9.90;38.78;100584.19;5230312;27;34059;-88
2022/03/28 06:28:49;;;;;;;;;;;;;;;9.87;38.90;100579.84;5227305;27;33437;-88
2022/03/28 06:31:18;;;;;;;;;;;;;;;9.25;40.23;100580.38;5227468;27;33668;-88
2022/03/28 06:33:47;;;;;;;;;;;;;;;9.38;39.71;100577.03;5234103;27;34558;-89
2022/03/28 06:36:16;;;;;;;;;;;;;;;9.49;39.55;100575.34;5227503;27;34089;-88
2022/03/28 06:38:44;;;;;;;;;;;;;;;9.73;38.73;100579.78;5227263;27;33615;-88
2022/03/28 06:41:14;;;;;;;;;;;;;;;9.96;38.55;100574.72;5227125;27;33998;-88
2022/03/28 06:43:42;;;;;;;;;;;;;;;10.21;37.20;100569.59;5228724;27;34164;-88
2022/03/28 06:46:11;;;;;;;;;;;;;;;10.03;37.11;100573.88;5204216;27;784525;-89
2022/03/28 06:48:41;;;;;;;;;;;;;;;9.69;37.64;100572.87;5232761;27;32758;-88
2022/03/28 06:51:09;;;;;;;;;;;;;;;9.89;37.36;100574.69;5227289;27;34030;-88
2022/03/28 06:53:48;;;;;;;;;;;;;;;9.83;36.60;100573.81;5227033;27;34101;-88
2022/03/28 06:56:16;;;;;;;;;;;;;;;9.64;36.42;100569.41;5227354;27;34071;-88
2022/03/28 06:58:47;;;;;;;;;;;;;;;10.30;36.13;100564.47;5226767;27;33999;-88
2022/03/28 07:01:15;;;;;;;;;;;;;;;10.00;37.23;100570.38;5233227;27;33905;-88
2022/03/28 07:03:46;;;;;;;;;;;;;;;10.01;36.77;100574.72;5227452;27;35053;-88
2022/03/28 07:06:14;;;;;;;;;;;;;;;10.33;35.38;100571.38;5226839;27;33316;-89
2022/03/28 07:08:43;;;;;;;;;;;;;;;10.57;34.63;100568.81;5226600;27;33481;-88
2022/03/28 07:11:11;;;;;;;;;;;;;;;10.78;34.37;100559.31;5226554;27;34283;-89
2022/03/28 07:13:39;;;;;;;;;;;;;;;11.01;34.48;100562.75;5214215;27;33786;-88
2022/03/28 07:16:08;;;;;;;;;;;;;;;11.34;33.39;100558.38;5226799;27;34196;-90
2022/03/28 07:18:36;;;;;;;;;;;;;;;10.88;33.96;100561.91;5226500;27;34134;-88
2022/03/28 07:21:07;;;;;;;;;;;;;;;11.15;33.23;100556.69;5226834;27;33889;-89
2022/03/28 07:23:35;;;;;;;;;;;;;;;11.03;33.36;100553.22;5207273;27;32856;-88
2022/03/28 07:26:03;;;;;;;;;;;;;;;11.24;32.26;100554.09;5231612;27;34615;-89
2022/03/28 07:28:32;;;;;;;;;;;;;;;11.39;33.03;100548.84;5232677;27;33669;-88
2022/03/28 07:31:01;;;;;;;;;;;;;;;11.52;31.67;100547.06;5227051;27;34829;-88
2022/03/28 07:33:29;;;;;;;;;;;;;;;11.88;30.85;100546.06;5226327;27;33605;-88
2022/03/28 07:35:58;;;;;;;;;;;;;;;12.15;30.45;100546.81;5227864;27;34332;-89
2022/03/28 07:38:28;;;;;;;;;;;;;;;12.36;29.14;100544.06;5226021;27;33395;-89
2022/03/28 07:40:59;;;;;;;;;;;;;;;12.45;29.34;100544.91;5232932;27;34059;-88
2022/03/28 07:43:27;;;;;;;;;;;;;;;12.17;27.92;100550.25;5226639;27;33948;-89
2022/03/28 07:45:56;;;;;;;;;;;;;;;12.55;29.85;100543.94;5226787;27;34195;-88
2022/03/28 07:48:25;;;;;;;;;;;;;;;12.64;28.42;100541.28;5226758;27;32864;-89
2022/03/28 07:50:53;;;;;;;;;;;;;;;12.73;28.02;100541.22;5226671;27;34303;-88
2022/03/28 07:53:21;;;;;;;;;;;;;;;13.09;28.69;100539.13;5233090;27;34190;-88
2022/03/28 07:55:51;;;;;;;;;;;;;;;12.95;28.79;100539.28;5227602;27;34277;-90
2022/03/28 07:58:20;;;;;;;;;;;;;;;13.29;28.57;100540.69;5227374;27;33079;-89
2022/03/28 08:00:50;;;;;;;;;;;;;;;13.22;27.98;100535.53;5227872;27;33922;-89
2022/03/28 08:03:19;;;;;;;;;;;;;;;13.61;28.92;100546.41;5227543;27;34770;-88
2022/03/28 08:05:48;;;;;;;;;;;;;;;13.71;28.61;100536.72;5234139;27;34247;-89
2022/03/28 08:08:17;;;;;;;;;;;;;;;13.08;28.85;100533.94;5228204;27;32842;-89
2022/03/28 08:10:45;;;;;;;;;;;;;;;13.56;29.26;100529.97;5226806;27;33883;-88
2022/03/28 08:13:15;;;;;;;;;;;;;;;13.35;29.29;100530.22;5227677;27;34824;-88
2022/03/28 08:15:43;;;;;;;;;;;;;;;13.74;28.95;100528.87;5227840;27;34774;-88
2022/03/28 08:18:12;;;;;;;;;;;;;;;13.73;28.65;100527.16;5232190;27;33372;-88
2022/03/28 08:20:43;;;;;;;;;;;;;;;13.65;30.21;100524.66;5234009;27;34668;-88
2022/03/28 08:23:14;;;;;;;;;;;;;;;14.06;30.03;100523.22;5227514;27;33989;-89
2022/03/28 08:25:42;;;;;;;;;;;;;;;14.21;29.63;100522.16;5208640;27;33316;-90
2022/03/28 08:28:10;;;;;;;;;;;;;;;14.28;29.75;100520.31;5227616;27;33479;-89
2022/03/28 08:30:40;;;;;;;;;;;;;;;14.15;30.93;100522.22;5227464;27;34281;-89
2022/03/28 08:33:09;;;;;;;;;;;;;;;14.51;30.43;100512.09;5234198;27;35001;-89
2022/03/28 08:35:38;;;;;;;;;;;;;;;14.76;30.52;100516.94;5227490;27;34196;-90
2022/03/28 08:38:07;;;;;;;;;;;;;;;14.83;31.18;100511.59;5227785;27;33655;-89
2022/03/28 08:40:35;;;;;;;;;;;;;;;15.24;30.65;100509.09;5226924;27;34234;-89
2022/03/28 08:43:04;;;;;;;;;;;;;;;15.17;30.27;100502.28;5227424;27;34953;-89
2022/03/28 08:45:33;;;;;;;;;;;;;;;15.11;30.78;100508.50;5234305;27;34368;-89
2022/03/28 08:48:03;;;;;;;;;;;;;;;15.20;30.49;100508.31;5227987;27;33260;-88
2022/03/28 08:50:40;;;;;;;;;;;;;;;15.24;30.86;100498.66;5227200;27;34803;-90
2022/03/28 08:53:09;;;;;;;;;;;;;;;15.15;31.72;100500.56;5227542;27;34902;-89
2022/03/28 08:55:39;;;;;;;;;;;;;;;15.35;30.99;100507.16;5227354;27;34071;-89
2022/03/28 08:58:07;;;;;;;;;;;;;;;15.44;31.26;100496.53;5228929;27;32732;-89
2022/03/28 09:00:36;;;;;;;;;;;;;;;15.41;31.84;100496.56;5233929;27;34881;-89
2022/03/28 09:03:06;;;;;;;;;;;;;;;15.67;30.85;100492.56;5227216;27;33789;-89
2022/03/28 09:05:35;;;;;;;;;;;;;;;15.82;30.45;100483.53;5226568;27;34031;-89
2022/03/28 09:08:04;;;;;;;;;;;;;;;15.85;29.89;100478.22;5226693;27;33496;-89
2022/03/28 09:10:46;;;;;;;;;;;;;;;16.08;30.53;100483.81;5226817;27;34149;-89
2022/03/28 09:13:16;;;;;;;;;;;;;;;16.31;31.23;100487.63;5233631;27;33833;-89
2022/03/28 09:15:47;;;;;;;;;;;;;;;16.21;32.21;100484.37;5228930;27;35125;-89
2022/03/28 09:18:23;;;;;;;;;;;;;;;16.32;31.44;100474.53;5227894;27;33745;-90
2022/03/28 09:20:53;;;;;;;;;;;;;;;16.30;31.85;100480.69;5227660;27;34820;-89
2022/03/28 09:23:40;;;;;;;;;;;;;;;16.72;31.83;100473.53;5227251;27;34294;-89
2022/03/28 09:26:10;;;;;;;;;;;;;;;16.50;30.79;100470.56;5228256;27;34000;-89
2022/03/28 09:28:46;;;;;;;;;;;;;;;16.52;31.96;100468.78;5233964;27;33433;-91
2022/03/28 09:31:22;;;;;;;;;;;;;;;16.77;31.65;100471.66;5234161;27;34312;-89
2022/03/28 09:33:53;;;;;;;;;;;;;;;16.90;31.13;100455.62;5229733;27;33747;-90
2022/03/28 09:36:34;;;;;;;;;;;;;;;16.70;30.91;100454.37;5226810;27;33958;-88
2022/03/28 09:39:02;;;;;;;;;;;;;;;16.99;30.47;100456.25;5227256;27;33205;-89
2022/03/28 09:41:31;;;;;;;;;;;;;;;17.37;29.88;100442.94;5227476;27;34878;-88
2022/03/28 09:43:59;;;;;;;;;;;;;;;17.00;30.87;100443.97;5234362;27;34935;-90
2022/03/28 09:46:28;;;;;;;;;;;;;;;17.34;30.98;100432.53;5227462;27;34661;-88
2022/03/28 09:48:59;;;;;;;;;;;;;;;17.37;30.67;100430.72;5226945;27;33481;-90
2022/03/28 09:51:28;;;;;;;;;;;;;;;17.50;31.36;100428.56;5228382;27;34881;-91
2022/03/28 09:53:56;;;;;;;;;;;;;;;17.75;31.90;100428.66;5227439;27;33966;-91
2022/03/28 09:56:25;;;;;;;;;;;;;;;17.64;32.09;100430.78;5227930;27;34177;-90
2022/03/28 09:58:59;;;;;;;;;;;;;;;17.60;31.72;100419.50;5213621;27;32223;-91
2022/03/28 10:01:30;;;;;;;;;;;;;;;17.79;32.80;100419.81;5226548;27;34334;-91
2022/03/28 10:04:03;;;;;;;;;;;;;;;18.22;31.81;100413.22;5225633;27;34683;-91
2022/03/28 10:06:32;;;;;;;;;;;;;;;18.01;32.46;100408.66;5227130;27;33459;-90
2022/03/28 10:09:01;;;;;;;;;;;;;;;18.40;31.54;100410.88;5227906;27;32915;-92
2022/03/28 10:11:30;;;;;;;;;;;;;;;18.21;31.71;100402.75;5234362;27;34919;-91
2022/03/28 10:13:59;;;;;;;;;;;;;;;18.46;30.83;100400.13;5226984;27;34262;-91
2022/03/28 10:16:29;;;;;;;;;;;;;;;18.38;31.60;100404.81;5224569;27;34247;-89
2022/03/28 10:18:58;;;;;;;;;;;;;;;18.50;31.36;100401.75;5227479;27;33938;-91
2022/03/28 10:21:28;;;;;;;;;;;;;;;18.51;31.64;100396.47;5225610;27;34287;-91
2022/03/28 10:23:57;;;;;;;;;;;;;;;18.72;31.34;100394.81;5231414;27;34081;-91
2022/03/28 10:26:26;;;;;;;;;;;;;;;18.80;31.35;100388.47;5233561;27;34432;-91
2022/03/28 10:29:02;;;;;;;;;;;;;;;18.72;31.19;100389.56;5227591;27;34004;-91
2022/03/28 10:31:33;;;;;;;;;;;;;;;18.72;31.28;100376.44;5227488;27;34178;-91
2022/03/28 10:34:40;;;;;;;;;;;;;;;18.76;31.39;100372.81;5227909;27;34237;-91
2022/03/28 10:37:30;;;;;;;;;;;;;;;18.95;30.98;100365.13;5227242;27;34060;-91
2022/03/28 10:40:16;;;;;;;;;;;;;;;19.18;30.95;100356.38;5227201;27;34283;-91
2022/03/28 10:42:47;;;;;;;;;;;;;;;19.12;31.56;100358.38;5227111;27;34149;-91
2022/03/28 10:45:19;;;;;;;;;;;;;;;19.26;31.03;100348.19;5233615;27;34121;-90
2022/03/28 10:47:51;;;;;;;;;;;;;;;19.31;30.89;100350.66;5227284;27;33912;-91
2022/03/28 10:50:22;;;;;;;;;;;;;;;19.40;30.66;100343.25;5227196;27;33670;-92
2022/03/28 10:53:05;;;;;;;;;;;;;;;19.18;31.04;100334.47;5227371;27;34259;-91
2022/03/28 10:55:33;;;;;;;;;;;;;;;19.44;31.19;100333.44;5226786;27;33920;-91
2022/03/28 10:58:06;;;;;;;;;;;;;;;19.60;30.67;100325.81;5227159;27;34838;-90
2022/03/28 11:00:34;;;;;;;;;;;;;;;19.66;30.88;100328.19;5233403;27;33777;-91
2022/03/28 11:03:03;;;;;;;;;;;;;;;19.71;30.72;100313.09;5227228;27;35006;-90
2022/03/28 11:05:32;;;;;;;;;;;;;;;19.89;31.78;100314.13;5226825;27;34235;-91
2022/03/28 11:08:05;;;;;;;;;;;;;;;19.83;30.48;100306.47;5226532;27;34214;-90
2022/03/28 11:10:37;;;;;;;;;;;;;;;20.07;31.07;100298.44;5227162;27;33084;-91
2022/03/28 11:13:15;;;;;;;;;;;;;;;19.95;30.88;100295.41;5227479;27;34286;-91
2022/03/28 11:15:45;;;;;;;;;;;;;;;20.02;31.05;100283.69;5233971;27;35083;-91
2022/03/28 11:18:13;;;;;;;;;;;;;;;20.21;30.72;100285.53;5227447;27;33669;-91
2022/03/28 11:20:45;;;;;;;;;;;;;;;20.43;30.48;100293.34;5226870;27;33298;-90
2022/03/28 11:23:15;;;;;;;;;;;;;;;20.40;30.08;100272.41;5227043;27;33987;-91
2022/03/28 11:25:46;;;;;;;;;;;;;;;20.76;30.76;100275.19;5226909;27;35159;-90
2022/03/28 11:28:15;;;;;;;;;;;;;;;20.61;29.71;100267.97;5233375;27;33300;-90
2022/03/28 11:30:51;;;;;;;;;;;;;;;20.83;30.50;100244.97;5227043;27;33961;-91
2022/03/28 11:33:21;;;;;;;;;;;;;;;20.69;29.67;100239.50;5227410;27;32470;-90
2022/03/28 11:35:54;;;;;;;;;;;;;;;20.69;30.18;100242.12;5227579;27;35022;-91
2022/03/28 11:38:24;;;;;;;;;;;;;;;20.90;30.10;100232.38;5227557;27;34737;-91
2022/03/28 11:40:59;;;;;;;;;;;;;;;20.96;29.54;100229.44;5227505;27;33686;-91
2022/03/28 11:43:31;;;;;;;;;;;;;;;20.65;29.38;100215.03;5233624;27;34578;-90
2022/03/28 11:46:09;;;;;;;;;;;;;;;20.87;29.75;100206.97;5227512;27;34160;-90
2022/03/28 11:48:54;;;;;;;;;;;;;;;21.07;29.86;100219.22;5227690;27;33211;-91
2022/03/28 11:51:23;;;;;;;;;;;;;;;21.27;29.84;100218.25;5227801;27;33390;-91
2022/03/28 11:54:01;;;;;;;;;;;;;;;21.22;29.07;100208.84;5227636;27;34192;-91
2022/03/28 11:56:29;;;;;;;;;;;;;;;21.18;29.10;100197.59;5228036;27;33980;-91
2022/03/28 11:59:01;;;;;;;;;;;;;;;20.97;29.32;100191.59;5233540;27;33898;-92
2022/03/28 12:01:31;;;;;;;;;;;;;;;21.19;28.54;100175.56;5213023;27;32383;-91
2022/03/28 12:04:00;;;;;;;;;;;;;;;21.39;29.03;100174.59;5226607;27;33864;-90
2022/03/28 12:06:29;;;;;;;;;;;;;;;21.54;28.30;100162.41;5227348;27;34634;-91
2022/03/28 12:08:58;;;;;;;;;;;;;;;21.61;27.94;100155.03;5226666;27;33826;-90
2022/03/28 12:11:28;;;;;;;;;;;;;;;21.53;28.36;100152.78;5226590;27;33317;-90
2022/03/28 12:13:56;;;;;;;;;;;;;;;21.55;28.42;100153.53;5234341;27;34086;-90
2022/03/28 12:16:25;;;;;;;;;;;;;;;21.70;27.92;100146.63;5227034;27;34165;-90
2022/03/28 12:18:58;;;;;;;;;;;;;;;21.50;27.88;100145.87;5207024;27;33317;-90
2022/03/28 12:21:27;;;;;;;;;;;;;;;21.39;28.66;100137.66;5228596;27;33304;-90
2022/03/28 12:23:56;;;;;;;;;;;;;;;21.32;28.36;100125.66;5226820;27;34936;-92
2022/03/28 12:26:28;;;;;;;;;;;;;;;21.31;28.73;100122.16;5214730;27;33312;-90
2022/03/28 12:28:57;;;;;;;;;;;;;;;21.35;28.11;100114.94;5226309;27;33974;-90
2022/03/28 12:31:25;;;;;;;;;;;;;;;21.61;28.28;100105.72;5226325;27;33336;-89
2022/03/28 12:33:54;;;;;;;;;;;;;;;21.85;27.85;100103.56;5226754;27;34109;-90
2022/03/28 12:36:26;;;;;;;;;;;;;;;22.09;27.71;100098.75;5226209;27;34054;-90
2022/03/28 12:38:56;;;;;;;;;;;;;;;22.16;26.97;100097.47;5231792;27;34871;-94
2022/03/28 12:41:26;;;;;;;;;;;;;;;22.27;26.97;100082.84;5233364;27;33889;-90
2022/03/28 12:43:56;;;;;;;;;;;;;;;22.40;26.65;100085.66;5226834;27;32400;-91
2022/03/28 12:46:25;;;;;;;;;;;;;;;22.60;26.58;100079.25;5226462;27;35734;-91
2022/03/28 12:48:54;;;;;;;;;;;;;;;22.64;26.58;100062.25;5226896;27;34212;-90
2022/03/28 12:51:27;;;;;;;;;;;;;;;22.93;26.54;100066.75;5227169;27;34105;-91
2022/03/28 12:54:02;;;;;;;;;;;;;;;23.20;26.20;100053.69;5233269;27;34660;-91
2022/03/28 12:56:36;;;;;;;;;;;;;;;23.24;25.43;100050.84;5226816;27;33858;-92